createdAt,value
2019-04-21T00:00:35.475Z,83.50
2019-04-21T00:03:09.942Z,83.90
2019-04-21T00:05:58.822Z,84.50
2019-04-21T00:08:33.543Z,85.20
2019-04-21T00:11:02.735Z,85.40
2019-04-21T00:13:23.867Z,85.90
2019-04-21T00:15:46.755Z,86.30
2019-04-21T00:18:29.656Z,86.70
2019-04-21T00:21:11.024Z,87.00
2019-04-21T00:23:51.534Z,87.40
2019-04-21T00:26:17.072Z,87.80
2019-04-21T00:29:02.028Z,88.10
2019-04-21T00:31:23.078Z,88.40
2019-04-21T00:33:39.476Z,88.80
2019-04-21T00:36:13.308Z,89.10
2019-04-21T00:39:07.062Z,89.30
2019-04-21T00:41:29.509Z,89.60
2019-04-21T00:43:53.211Z,89.90
2019-04-21T00:46:26.387Z,90.00
2019-04-21T00:48:57.384Z,90.10
2019-04-21T00:51:40.676Z,90.20
2019-04-21T00:54:15.190Z,90.40
2019-04-21T00:56:45.529Z,90.40
2019-04-21T00:59:05.786Z,90.60
2019-04-21T01:01:40.580Z,90.60
2019-04-21T01:04:09.290Z,90.70
2019-04-21T01:06:43.710Z,90.90
2019-04-21T01:09:11.761Z,90.90
2019-04-21T01:11:44.776Z,91.00
2019-04-21T01:14:16.641Z,91.10
2019-04-21T01:16:45.800Z,91.00
2019-04-21T01:19:14.310Z,91.10
2019-04-21T01:21:24.467Z,91.10
2019-04-21T01:23:55.664Z,91.10
2019-04-21T01:26:32.876Z,91.20
2019-04-21T01:29:11.925Z,91.10
2019-04-21T01:31:41.856Z,91.20
2019-04-21T01:34:16.343Z,91.20
2019-04-21T01:36:45.471Z,91.10
2019-04-21T01:39:22.463Z,91.10
2019-04-21T01:41:53.344Z,91.00
2019-04-21T01:44:24.954Z,91.10
2019-04-21T01:46:48.676Z,91.20
2019-04-21T01:49:16.078Z,91.10
2019-04-21T01:52:08.815Z,91.30
2019-04-21T01:55:00.629Z,91.30
2019-04-21T01:57:42.584Z,91.50
2019-04-21T02:00:12.508Z,91.40
2019-04-21T02:02:54.590Z,91.60
2019-04-21T02:07:52.378Z,91.80
2019-04-21T02:10:37.300Z,91.90
2019-04-21T02:12:58.285Z,91.90
2019-04-21T02:15:31.145Z,91.90
2019-04-21T02:17:59.261Z,92.00
2019-04-21T02:20:23.004Z,92.20
2019-04-21T02:23:24.420Z,92.30
2019-04-21T02:25:33.595Z,92.50
2019-04-21T02:28:03.532Z,92.50
2019-04-21T02:30:50.139Z,92.50
2019-04-21T02:33:18.717Z,92.60
2019-04-21T02:35:56.496Z,92.80
2019-04-21T02:38:25.293Z,92.80
2019-04-21T02:48:32.903Z,93.20
2019-04-21T02:50:47.055Z,93.20
2019-04-21T02:53:35.388Z,93.30
2019-04-21T02:55:55.661Z,93.30
2019-04-21T02:58:44.429Z,93.40
2019-04-21T03:01:23.829Z,93.50
2019-04-21T03:04:10.601Z,93.60
2019-04-21T03:07:08.118Z,93.70
2019-04-21T03:12:05.363Z,94.00
2019-04-21T03:17:05.737Z,94.20
2019-04-21T03:22:14.536Z,94.50
2019-04-21T03:27:31.167Z,94.80
2019-04-21T03:32:36.696Z,95.20
2019-04-21T03:39:46.375Z,95.70
2019-04-21T03:42:32.816Z,95.90
2019-04-21T03:50:02.452Z,97.10
2019-04-21T03:52:20.108Z,97.20
2019-04-21T04:04:00.632Z,98.20
2019-04-21T04:06:22.583Z,98.30
2019-04-21T04:14:23.372Z,98.70
2019-04-21T04:19:27.040Z,98.80
2019-04-21T04:22:00.877Z,99.10
2019-04-21T04:29:26.272Z,99.80
2019-04-21T04:40:10.114Z,99.90
2019-04-21T04:52:38.413Z,99.90
2019-04-21T04:55:06.843Z,99.90
2019-04-21T04:57:47.017Z,99.90
2019-04-21T05:00:19.733Z,99.90
2019-04-21T05:07:44.334Z,99.90
2019-04-21T05:10:07.940Z,99.90
2019-04-21T05:12:38.810Z,99.90
2019-04-21T05:17:49.212Z,99.90
2019-04-21T05:22:47.260Z,99.90
2019-04-21T05:25:06.867Z,99.90
2019-04-21T05:27:40.980Z,99.90
2019-04-21T05:33:32.838Z,99.90
2019-04-21T05:36:22.285Z,99.90
2019-04-21T05:39:11.553Z,99.90
2019-04-21T05:41:31.371Z,99.90
2019-04-21T05:44:13.284Z,99.90
2019-04-21T05:46:53.436Z,99.90
2019-04-21T05:49:22.385Z,99.90
2019-04-21T05:51:58.376Z,99.90
2019-04-21T05:57:05.914Z,99.90
2019-04-21T05:59:37.645Z,99.90
2019-04-21T06:02:18.858Z,99.90
2019-04-21T06:05:02.097Z,99.90
2019-04-21T06:07:19.057Z,99.90
2019-04-21T06:09:54.194Z,99.90
2019-04-21T06:12:13.114Z,99.90
2019-04-21T06:14:49.047Z,99.00
2019-04-21T06:17:19.727Z,96.60
2019-04-21T06:19:52.738Z,95.70
2019-04-21T06:22:16.568Z,94.80
2019-04-21T06:25:16.271Z,93.80
2019-04-21T06:27:26.403Z,93.00
2019-04-21T06:29:49.155Z,92.20
2019-04-21T06:32:35.891Z,92.10
2019-04-21T06:40:15.225Z,90.50
2019-04-21T06:42:50.398Z,90.20
2019-04-21T06:45:25.767Z,87.70
2019-04-21T06:47:50.089Z,85.50
2019-04-21T06:50:23.954Z,87.20
2019-04-21T06:53:00.790Z,82.00
2019-04-21T06:55:29.285Z,82.60
2019-04-21T06:57:56.027Z,80.20
2019-04-21T07:00:25.659Z,79.00
2019-04-21T07:03:01.212Z,77.90
2019-04-21T07:05:35.849Z,74.40
2019-04-21T07:08:14.921Z,71.80
2019-04-21T07:12:58.973Z,72.60
2019-04-21T07:15:30.794Z,74.50
2019-04-21T07:18:06.335Z,75.00
2019-04-21T07:20:28.124Z,75.50
2019-04-21T07:23:03.226Z,74.00
2019-04-21T07:25:40.924Z,70.80
2019-04-21T07:28:05.683Z,70.30
2019-04-21T07:30:37.704Z,72.00
2019-04-21T07:35:41.097Z,69.30
2019-04-21T07:38:09.646Z,71.10
2019-04-21T07:40:33.216Z,75.10
2019-04-21T07:43:05.725Z,76.20
2019-04-21T07:45:35.134Z,73.30
2019-04-21T07:48:18.765Z,71.20
2019-04-21T07:51:11.472Z,67.30
2019-04-21T07:53:58.349Z,67.90
2019-04-21T07:56:06.263Z,67.60
2019-04-21T07:58:56.276Z,66.10
2019-04-21T08:01:26.940Z,64.80
2019-04-21T08:03:55.381Z,64.60
2019-04-21T08:06:31.918Z,63.00
2019-04-21T08:08:52.915Z,62.30
2019-04-21T08:11:20.999Z,62.80
2019-04-21T08:13:53.581Z,65.00
2019-04-21T08:16:24.403Z,64.50
2019-04-21T08:19:05.795Z,64.30
2019-04-21T08:21:28.049Z,64.70
2019-04-21T08:23:54.135Z,62.20
2019-04-21T08:26:35.927Z,63.40
2019-04-21T08:29:13.114Z,63.90
2019-04-21T08:31:46.662Z,64.10
2019-04-21T08:34:08.444Z,63.50
2019-04-21T08:36:40.696Z,63.40
2019-04-21T08:39:16.328Z,63.90
2019-04-21T08:41:47.847Z,61.80
2019-04-21T08:44:09.305Z,61.30
2019-04-21T08:46:47.177Z,60.30
2019-04-21T08:49:17.334Z,63.20
2019-04-21T08:51:48.521Z,62.90
2019-04-21T08:54:22.012Z,62.60
2019-04-21T08:57:10.436Z,62.10
2019-04-21T09:00:16.274Z,62.10
2019-04-21T09:02:54.743Z,61.10
2019-04-21T09:05:20.576Z,60.00
2019-04-21T09:07:55.722Z,59.00
2019-04-21T09:10:25.088Z,58.90
2019-04-21T09:12:52.215Z,59.20
2019-04-21T09:15:23.183Z,59.70
2019-04-21T09:17:44.794Z,61.00
2019-04-21T09:20:31.071Z,60.40
2019-04-21T09:22:55.675Z,61.30
2019-04-21T09:25:39.030Z,61.40
2019-04-21T09:28:02.365Z,61.10
2019-04-21T09:30:11.061Z,62.80
2019-04-21T09:32:40.445Z,60.10
2019-04-21T09:35:12.455Z,60.00
2019-04-21T09:37:49.527Z,60.00
2019-04-21T09:40:13.490Z,60.10
2019-04-21T09:42:53.168Z,58.90
2019-04-21T09:45:15.775Z,59.10
2019-04-21T09:47:56.717Z,60.40
2019-04-21T09:50:17.415Z,59.40
2019-04-21T09:52:52.859Z,58.40
2019-04-21T09:55:22.789Z,57.60
2019-04-21T09:57:55.038Z,57.40
2019-04-21T10:00:24.792Z,57.70
2019-04-21T10:02:59.988Z,58.60
2019-04-21T10:05:22.153Z,59.10
2019-04-21T10:07:51.406Z,59.40
2019-04-21T10:10:20.794Z,58.80
2019-04-21T10:12:50.080Z,57.50
2019-04-21T10:15:21.985Z,57.90
2019-04-21T10:17:54.038Z,57.00
2019-04-21T10:20:24.509Z,59.50
2019-04-21T10:23:13.529Z,61.10
2019-04-21T10:25:43.091Z,61.70
2019-04-21T10:28:12.868Z,60.20
2019-04-21T10:30:42.601Z,61.70
2019-04-21T10:33:12.558Z,64.50
2019-04-21T10:35:43.257Z,65.70
2019-04-21T10:38:23.018Z,66.60
2019-04-21T10:40:43.643Z,66.90
2019-04-21T10:43:14.224Z,67.20
2019-04-21T10:45:43.956Z,66.50
2019-04-21T10:48:14.588Z,66.20
2019-04-21T10:50:45.210Z,67.10
2019-04-21T10:53:27.152Z,66.90
2019-04-21T10:56:10.457Z,66.60
2019-04-21T10:58:29.888Z,66.90
2019-04-21T11:01:10.715Z,65.50
2019-04-21T11:04:20.274Z,64.30
2019-04-21T11:06:46.412Z,63.50
2019-04-21T11:09:15.907Z,64.00
2019-04-21T11:11:48.136Z,64.20
2019-04-21T11:14:17.572Z,63.90
2019-04-21T11:16:48.025Z,64.00
2019-04-21T11:19:18.181Z,63.10
2019-04-21T11:21:47.488Z,62.30
2019-04-21T11:24:18.130Z,63.30
2019-04-21T11:26:47.807Z,61.30
2019-04-21T11:29:17.252Z,62.20
2019-04-21T11:31:47.318Z,60.80
2019-04-21T11:34:16.700Z,62.20
2019-04-21T11:36:46.053Z,61.60
2019-04-21T11:39:42.149Z,61.30
2019-04-21T11:42:08.297Z,60.00
2019-04-21T11:44:37.623Z,59.80
2019-04-21T11:47:10.260Z,59.20
2019-04-21T11:49:41.020Z,58.80
2019-04-21T11:52:11.347Z,58.60
2019-04-21T11:54:40.701Z,58.40
2019-04-21T11:57:15.166Z,58.70
2019-04-21T11:59:41.702Z,58.20
2019-04-21T12:02:30.475Z,58.90
2019-04-21T12:04:59.754Z,59.30
2019-04-21T12:07:29.296Z,59.30
2019-04-21T12:09:59.696Z,59.30
2019-04-21T12:12:29.615Z,59.00
2019-04-21T12:14:59.911Z,60.20
2019-04-21T12:17:30.023Z,59.30
2019-04-21T12:20:00.952Z,60.00
2019-04-21T12:22:33.428Z,59.90
2019-04-21T12:25:01.328Z,59.10
2019-04-21T12:27:31.899Z,58.70
2019-04-21T12:30:02.060Z,59.10
2019-04-21T12:32:46.603Z,58.70
2019-04-21T12:35:16.095Z,58.20
2019-04-21T12:37:46.806Z,58.40
2019-04-21T12:40:16.816Z,58.30
2019-04-21T12:42:46.354Z,58.60
2019-04-21T12:45:15.709Z,59.10
2019-04-21T12:47:47.384Z,59.20
2019-04-21T12:50:17.034Z,58.80
2019-04-21T12:52:47.461Z,59.20
2019-04-21T12:55:17.661Z,58.60
2019-04-21T12:57:47.693Z,58.00
2019-04-21T13:00:20.751Z,58.60
2019-04-21T13:02:50.115Z,58.10
2019-04-21T13:05:19.950Z,57.90
2019-04-21T13:07:49.480Z,58.50
2019-04-21T13:10:20.198Z,58.60
2019-04-21T13:12:50.075Z,59.10
2019-04-21T13:15:19.955Z,57.70
2019-04-21T13:17:50.255Z,57.40
2019-04-21T13:20:19.700Z,57.10
2019-04-21T13:22:50.272Z,56.60
2019-04-21T13:25:20.073Z,55.50
2019-04-21T13:27:49.479Z,55.40
2019-04-21T13:30:20.143Z,55.30
2019-04-21T13:32:49.532Z,56.80
2019-04-21T13:35:19.117Z,56.10
2019-04-21T13:37:50.567Z,52.50
2019-04-21T13:40:53.074Z,54.20
2019-04-21T13:43:10.737Z,54.20
2019-04-21T13:45:39.977Z,52.50
2019-04-21T13:48:10.495Z,51.60
2019-04-21T13:50:41.132Z,52.50
2019-04-21T13:53:10.780Z,47.50
2019-04-21T13:55:40.745Z,49.80
2019-04-21T13:58:10.483Z,50.90
2019-04-21T14:00:40.065Z,51.20
2019-04-21T14:03:10.427Z,54.50
2019-04-21T14:05:40.279Z,55.70
2019-04-21T14:08:11.178Z,55.70
2019-04-21T14:10:41.706Z,55.90
2019-04-21T14:13:12.166Z,56.40
2019-04-21T14:15:42.093Z,56.50
2019-04-21T14:18:12.998Z,56.70
2019-04-21T14:20:42.952Z,57.20
2019-04-21T14:23:21.068Z,57.10
2019-04-21T14:25:43.839Z,56.30
2019-04-21T14:28:14.210Z,56.80
2019-04-21T14:30:44.287Z,56.50
2019-04-21T14:33:14.181Z,56.70
2019-04-21T14:35:45.023Z,56.40
2019-04-21T15:11:56.191Z,55.40
2019-04-21T15:14:26.239Z,55.30
2019-04-21T15:16:56.799Z,54.80
2019-04-21T15:19:26.570Z,55.00
2019-04-21T15:21:56.731Z,54.90
2019-04-21T15:24:26.656Z,55.00
2019-04-21T15:26:56.881Z,53.50
2019-04-21T15:29:26.793Z,53.10
2019-04-21T15:31:56.845Z,54.20
2019-04-21T15:34:27.411Z,54.30
2019-04-21T15:36:58.012Z,54.40
2019-04-21T15:39:27.920Z,54.40
2019-04-21T15:41:58.751Z,54.80
2019-04-21T15:44:28.356Z,55.10
2019-04-21T15:46:57.838Z,54.70
2019-04-21T15:49:40.548Z,55.10
2019-04-21T15:52:02.033Z,55.20
2019-04-21T15:54:32.400Z,55.40
2019-04-21T15:57:11.097Z,55.30
2019-04-21T16:00:05.050Z,55.10
2019-04-21T16:02:42.515Z,55.10
2019-04-21T16:05:13.000Z,54.70
2019-04-21T16:07:42.483Z,54.40
2019-04-21T16:10:21.390Z,54.50
2019-04-21T16:12:43.696Z,54.60
2019-04-21T16:15:16.673Z,54.70
2019-04-21T16:17:47.490Z,54.80
2019-04-21T16:20:17.753Z,54.40
2019-04-21T16:22:48.520Z,54.70
2019-04-21T16:25:20.936Z,54.90
2019-04-21T16:27:51.038Z,55.10
2019-04-21T16:30:21.822Z,55.60
2019-04-21T16:32:52.250Z,56.50
2019-04-21T16:35:22.120Z,56.10
2019-04-21T16:37:54.377Z,55.80
2019-04-21T16:40:23.675Z,55.50
2019-04-21T16:42:54.159Z,56.20
2019-04-21T16:45:25.290Z,56.60
2019-04-21T16:47:55.560Z,56.00
2019-04-21T16:50:27.844Z,56.40
2019-04-21T16:53:12.457Z,56.40
2019-04-21T16:56:07.033Z,56.40
2019-04-21T16:58:50.753Z,55.30
2019-04-21T17:01:24.249Z,54.80
2019-04-21T17:03:54.719Z,54.80
2019-04-21T17:06:24.962Z,55.00
2019-04-21T17:08:54.723Z,55.10
2019-04-21T17:11:31.039Z,55.20
2019-04-21T17:13:58.214Z,55.20
2019-04-21T17:16:48.262Z,55.30
2019-04-21T17:19:08.851Z,55.80
2019-04-21T17:21:30.066Z,55.50
2019-04-21T17:23:59.654Z,55.50
2019-04-21T17:26:29.073Z,56.20
2019-04-21T17:28:58.786Z,56.60
2019-04-21T17:31:28.834Z,56.80
2019-04-21T17:34:06.332Z,56.20
2019-04-21T17:36:29.442Z,56.30
2019-04-21T17:39:18.693Z,56.40
2019-04-21T17:42:01.986Z,56.60
2019-04-21T17:44:19.368Z,56.20
2019-04-21T17:46:56.343Z,56.10
2019-04-21T17:49:21.181Z,56.80
2019-04-21T17:52:07.954Z,55.60
2019-04-21T17:54:45.260Z,54.90
2019-04-21T17:57:31.622Z,55.00
2019-04-21T18:00:04.016Z,54.70
2019-04-21T18:02:38.598Z,54.30
2019-04-21T18:05:08.999Z,54.50
2019-04-21T18:07:34.892Z,54.80
2019-04-21T18:10:15.636Z,54.70
2019-04-21T18:12:33.690Z,56.20
2019-04-21T18:15:00.080Z,56.60
2019-04-21T18:17:20.755Z,56.50
2019-04-21T18:19:51.736Z,56.90
2019-04-21T18:22:47.264Z,56.90
2019-04-21T18:25:34.698Z,57.20
2019-04-21T18:27:50.557Z,57.50
2019-04-21T18:31:20.825Z,58.10
2019-04-21T18:34:17.453Z,57.80
2019-04-21T18:36:52.519Z,58.20
2019-04-21T18:39:49.540Z,58.40
2019-04-21T18:42:45.479Z,58.70
2019-04-21T18:45:41.489Z,59.00
2019-04-21T18:48:18.922Z,59.50
2019-04-21T18:50:57.344Z,59.60
2019-04-21T18:54:02.373Z,60.10
2019-04-21T18:56:19.516Z,60.40
2019-04-21T18:58:48.532Z,60.70
2019-04-21T19:01:24.157Z,60.30
2019-04-21T19:03:52.206Z,60.50
2019-04-21T19:06:32.519Z,61.00
2019-04-21T19:09:11.684Z,62.20
2019-04-21T19:11:43.356Z,63.60
2019-04-21T19:14:28.030Z,64.20
2019-04-21T19:16:59.040Z,64.70
2019-04-21T19:19:39.172Z,64.60
2019-04-21T19:21:46.994Z,64.40
2019-04-21T19:24:29.183Z,64.60
2019-04-21T19:29:28.880Z,63.30
2019-04-21T19:31:58.302Z,63.40
2019-04-21T19:34:14.337Z,63.00
2019-04-21T19:37:04.118Z,63.80
2019-04-21T19:39:39.326Z,63.90
2019-04-21T19:42:09.902Z,64.00
2019-04-21T19:44:47.103Z,64.20
2019-04-21T19:47:25.670Z,64.20
2019-04-21T19:49:51.264Z,64.20
2019-04-21T19:52:06.580Z,64.10
2019-04-21T19:54:39.182Z,64.30
2019-04-21T19:57:04.920Z,64.70
2019-04-21T19:59:40.533Z,64.60
2019-04-21T20:02:06.798Z,64.70
2019-04-21T20:04:43.973Z,65.00
2019-04-21T20:07:22.994Z,65.20
2019-04-21T20:09:55.810Z,65.30
2019-04-21T20:12:36.930Z,65.50
2019-04-21T20:15:16.743Z,65.80
2019-04-21T20:17:31.166Z,65.80
2019-04-21T20:19:44.531Z,66.00
2019-04-21T20:22:14.742Z,67.10
2019-04-21T20:24:49.904Z,66.60
2019-04-21T20:27:19.785Z,66.70
2019-04-21T20:30:02.221Z,66.70
2019-04-21T20:32:38.463Z,66.60
2019-04-21T20:35:07.037Z,66.80
2019-04-21T20:37:31.503Z,66.80
2019-04-21T20:39:58.462Z,67.40
2019-04-21T20:42:35.084Z,67.10
2019-04-21T20:45:28.811Z,66.90
2019-04-21T20:47:34.989Z,67.00
2019-04-21T20:50:08.158Z,67.10
2019-04-21T20:52:47.896Z,66.90
2019-04-21T20:55:10.907Z,67.10
2019-04-21T20:57:41.820Z,67.30
2019-04-21T21:00:18.766Z,67.80
2019-04-21T21:02:55.552Z,67.60
2019-04-21T21:05:17.733Z,67.80
2019-04-21T21:07:56.551Z,68.20
2019-04-21T21:10:20.962Z,67.90
2019-04-21T21:13:04.302Z,67.60
2019-04-21T21:15:25.246Z,67.80
2019-04-21T21:18:06.293Z,67.70
2019-04-21T21:20:31.076Z,68.10
2019-04-21T21:22:56.160Z,68.20
2019-04-21T21:25:40.084Z,68.20
2019-04-21T21:27:56.886Z,68.30
2019-04-21T21:30:30.002Z,68.60
2019-04-21T21:33:00.839Z,68.90
2019-04-21T21:35:31.142Z,69.00
2019-04-21T21:38:06.689Z,69.20
2019-04-21T21:40:36.412Z,69.10
2019-04-21T21:42:51.181Z,68.40
2019-04-21T21:45:23.848Z,69.30
2019-04-21T21:48:11.433Z,69.60
2019-04-21T21:50:28.228Z,69.80
2019-04-21T21:53:00.676Z,70.20
2019-04-21T21:55:25.637Z,70.40
2019-04-21T21:57:58.823Z,70.50
2019-04-21T22:00:27.988Z,70.70
2019-04-21T22:02:59.217Z,71.00
2019-04-21T22:05:33.115Z,71.00
2019-04-21T22:08:00.449Z,71.40
2019-04-21T22:10:29.824Z,71.70
2019-04-21T22:13:06.790Z,72.00
2019-04-21T22:15:33.685Z,72.30
2019-04-21T22:18:31.449Z,72.70
2019-04-21T22:20:47.545Z,73.00
2019-04-21T22:23:11.288Z,73.30
2019-04-21T22:25:37.954Z,73.60
2019-04-21T22:28:07.439Z,74.00
2019-04-21T22:30:40.986Z,74.20
2019-04-21T22:33:10.830Z,74.40
2019-04-21T22:35:53.203Z,74.60
2019-04-21T22:38:37.567Z,74.60
2019-04-21T22:40:58.048Z,75.10
2019-04-21T22:43:26.741Z,75.40
2019-04-21T22:45:49.408Z,75.60
2019-04-21T22:48:21.568Z,76.50
2019-04-21T22:50:50.647Z,76.80
2019-04-21T22:53:21.421Z,77.20
2019-04-21T22:55:57.257Z,77.50
2019-04-21T22:58:28.301Z,77.90
2019-04-21T23:00:57.078Z,77.70
2019-04-21T23:03:25.219Z,78.00
2019-04-21T23:06:19.178Z,77.50
2019-04-21T23:08:46.139Z,77.60
2019-04-21T23:11:16.654Z,77.90
2019-04-21T23:13:54.993Z,77.80
2019-04-21T23:16:23.582Z,78.20
2019-04-21T23:19:09.629Z,78.40
2019-04-21T23:21:30.478Z,78.70
2019-04-21T23:24:14.939Z,79.30
2019-04-21T23:26:42.437Z,79.40
2019-04-21T23:29:21.048Z,80.40
2019-04-21T23:31:51.685Z,83.10
2019-04-21T23:34:04.462Z,84.10
2019-04-21T23:36:35.965Z,85.00
2019-04-21T23:39:14.437Z,85.30
2019-04-21T23:41:43.483Z,85.60
2019-04-21T23:44:12.222Z,86.10
2019-04-21T23:46:40.890Z,86.60
2019-04-21T23:49:21.655Z,86.60
2019-04-21T23:51:49.055Z,86.80
2019-04-21T23:54:13.344Z,87.20
2019-04-21T23:56:45.621Z,88.10
2019-04-21T23:59:16.079Z,88.10
